Time;durP1;ratioP1;P1;durP2;ratioP2;P2;SDS_P1;SDS_P2;PMS_P1;PMS_P2;Temp;Humidity;BMP_temperature;BMP_pressure;BME280_temperature;BME280_humidity;BME280_pressure;Samples;Min_cycle;Max_cycle;Signal;HPM_P1;HPM_P2
2022/07/03 00:00:10;;;;;;;3.55;2.35;;;19.10;99.90;;;;;;5052595;28;20048;-69
2022/07/03 00:02:36;;;;;;;4.40;2.72;;;19.00;99.90;;;;;;5034092;28;20033;-70
2022/07/03 00:05:02;;;;;;;3.22;2.53;;;20.00;99.90;;;;;;5035767;28;20048;-70
2022/07/03 00:07:28;;;;;;;3.95;2.47;;;18.90;99.90;;;;;;5053274;28;20033;-72
2022/07/03 00:09:53;;;;;;;4.95;2.85;;;20.30;99.90;;;;;;5018312;28;20116;-70
2022/07/03 00:12:19;;;;;;;5.20;2.97;;;18.90;99.90;;;;;;5083556;22;20047;-72
2022/07/03 00:14:44;;;;;;;2.90;2.53;;;19.70;99.90;;;;;;5072337;28;20048;-71
2022/07/03 00:17:10;;;;;;;4.00;2.78;;;18.80;99.90;;;;;;5073557;28;20091;-72
2022/07/03 00:19:36;;;;;;;5.53;2.80;;;18.80;99.90;;;;;;5071220;28;20090;-71
2022/07/03 00:22:07;;;;;;;6.82;2.78;;;19.60;99.90;;;;;;5071882;28;20037;-72
2022/07/03 00:24:43;;;;;;;3.80;2.58;;;18.80;99.90;;;;;;5073431;28;20188;-72
2022/07/03 00:27:09;;;;;;;4.38;3.25;;;18.60;99.90;;;;;;5073371;28;20032;-71
2022/07/03 00:29:42;;;;;;;5.82;3.17;;;19.60;99.90;;;;;;5071086;28;20090;-73
2022/07/03 00:32:12;;;;;;;4.03;2.70;;;18.40;99.90;;;;;;5073068;28;20134;-72
2022/07/03 00:34:39;;;;;;;3.92;3.05;;;19.60;99.90;;;;;;5071705;28;20128;-72
2022/07/03 00:37:09;;;;;;;7.28;3.35;;;18.50;99.90;;;;;;5073183;28;20040;-71
2022/07/03 00:39:41;;;;;;;6.25;3.80;;;18.20;99.90;;;;;;5070995;28;20422;-72
2022/07/03 00:42:07;;;;;;;5.05;3.33;;;18.50;99.90;;;;;;5071815;28;20070;-71
2022/07/03 00:44:37;;;;;;;4.88;3.05;;;18.40;99.90;;;;;;5071611;28;20046;-71
2022/07/03 00:47:05;;;;;;;5.55;2.53;;;19.40;99.90;;;;;;5072672;28;20090;-71
2022/07/03 00:49:33;;;;;;;5.20;3.38;;;18.10;99.90;;;;;;5070713;28;20036;-72
2022/07/03 00:52:03;;;;;;;5.22;2.70;;;18.70;99.90;;;;;;5071649;28;20052;-71
2022/07/03 00:54:33;;;;;;;4.78;3.00;;;18.00;99.90;;;;;;5054877;28;20072;-71
2022/07/03 00:57:00;;;;;;;4.57;3.10;;;18.70;99.90;;;;;;5072685;28;20040;-71
2022/07/03 00:59:26;;;;;;;5.97;2.85;;;18.00;99.90;;;;;;5070335;28;20036;-71
2022/07/03 01:01:59;;;;;;;6.28;3.15;;;19.20;99.90;;;;;;5070792;28;20033;-71
2022/07/03 01:04:45;;;;;;;4.78;3.05;;;18.80;99.90;;;;;;5071454;28;20044;-71
2022/07/03 01:07:43;;;;;;;3.83;2.80;;;17.80;99.90;;;;;;5071470;28;20040;-72
2022/07/03 01:10:12;;;;;;;4.65;3.40;;;18.00;99.90;;;;;;5069624;28;20059;-72
2022/07/03 01:12:47;;;;;;;5.20;3.40;;;17.80;99.90;;;;;;5072198;28;20072;-71
2022/07/03 01:15:35;;;;;;;3.80;3.05;;;17.80;99.90;;;;;;5071134;28;20044;-71
2022/07/03 01:18:26;;;;;;;5.28;2.60;;;17.80;99.90;;;;;;5072326;28;20051;-72
2022/07/03 01:20:59;;;;;;;5.93;2.53;;;19.30;99.90;;;;;;5071486;28;20044;-72
2022/07/03 01:23:35;;;;;;;3.70;2.55;;;19.30;99.90;;;;;;5072024;28;20041;-71
2022/07/03 01:26:03;;;;;;;3.33;2.65;;;18.60;99.90;;;;;;5070863;28;20078;-71
2022/07/03 01:28:29;;;;;;;5.18;2.97;;;17.50;99.90;;;;;;5070682;28;20086;-71
2022/07/03 01:30:57;;;;;;;7.32;3.00;;;17.30;99.90;;;;;;5070000;28;20059;-72
2022/07/03 01:33:25;;;;;;;4.78;3.17;;;18.90;99.90;;;;;;5070813;28;20044;-71
2022/07/03 01:35:56;;;;;;;5.82;2.92;;;18.20;99.90;;;;;;5071938;28;20479;-72
2022/07/03 01:38:22;;;;;;;3.38;2.72;;;17.30;99.90;;;;;;5072168;28;20383;-71
2022/07/03 01:40:50;;;;;;;3.60;3.00;;;17.40;99.90;;;;;;5071207;28;20039;-71
2022/07/03 01:43:21;;;;;;;4.03;3.10;;;17.50;99.90;;;;;;5071998;28;20037;-72
2022/07/03 01:45:48;;;;;;;6.85;2.85;;;17.40;99.90;;;;;;5070873;28;20102;-71
2022/07/03 01:48:14;;;;;;;3.03;2.65;;;17.70;99.90;;;;;;5054006;28;20398;-72
2022/07/03 01:50:42;;;;;;;3.33;2.97;;;17.30;99.90;;;;;;5070096;28;20040;-71
2022/07/03 01:53:10;;;;;;;4.60;3.13;;;17.20;99.90;;;;;;5070342;28;20047;-72
2022/07/03 01:55:39;;;;;;;4.88;2.58;;;18.30;99.90;;;;;;5053944;28;20060;-71
2022/07/03 01:58:05;;;;;;;3.40;2.72;;;17.20;99.90;;;;;;5071819;28;20056;-71
2022/07/03 02:00:48;;;;;;;5.85;3.08;;;17.20;99.90;;;;;;5067941;28;20044;-71
2022/07/03 02:03:24;;;;;;;6.18;3.50;;;17.20;99.90;;;;;;5053922;28;20036;-72
2022/07/03 02:05:59;;;;;;;8.25;3.13;;;17.20;99.90;;;;;;5053716;28;20040;-72
2022/07/03 02:08:33;;;;;;;5.93;2.97;;;17.40;99.90;;;;;;5072188;28;20040;-71
2022/07/03 02:11:13;;;;;;;4.65;3.13;;;18.60;99.90;;;;;;5071079;28;20040;-72
2022/07/03 02:13:50;;;;;;;3.65;3.00;;;17.10;99.90;;;;;;5070190;28;20125;-71
2022/07/03 02:16:20;;;;;;;7.68;3.00;;;17.20;99.90;;;;;;5070609;28;20083;-71
2022/07/03 02:19:08;;;;;;;4.40;2.63;;;17.10;99.90;;;;;;5070178;28;20040;-71
2022/07/03 02:21:34;;;;;;;4.85;3.28;;;17.10;99.90;;;;;;5070210;28;20037;-71
2022/07/03 02:24:05;;;;;;;4.57;3.13;;;18.00;99.90;;;;;;5070204;28;20406;-71
2022/07/03 02:26:38;;;;;;;3.60;2.88;;;16.90;99.90;;;;;;5071465;28;20067;-73
2022/07/03 02:29:15;;;;;;;4.30;2.70;;;17.30;99.90;;;;;;5069867;28;20047;-71
2022/07/03 02:31:46;;;;;;;3.25;2.83;;;17.00;99.90;;;;;;5070064;28;20045;-71
2022/07/03 02:34:21;;;;;;;7.50;3.10;;;16.90;99.90;;;;;;5070172;28;20037;-71
2022/07/03 02:36:49;;;;;;;3.60;2.92;;;17.00;99.90;;;;;;5070073;28;20044;-71
2022/07/03 02:39:25;;;;;;;5.10;3.00;;;16.80;99.90;;;;;;5070940;28;20055;-71
2022/07/03 02:41:58;;;;;;;5.93;3.30;;;16.60;99.90;;;;;;5075216;28;20127;-71
2022/07/03 02:44:38;;;;;;;4.78;3.10;;;16.60;99.90;;;;;;5074309;28;20035;-72
2022/07/03 02:47:28;;;;;;;4.07;2.55;;;16.70;99.90;;;;;;5057609;28;20040;-71
2022/07/03 02:50:15;;;;;;;4.40;2.70;;;16.70;99.90;;;;;;5036269;28;20052;-71
2022/07/03 02:52:44;;;;;;;6.13;3.92;;;16.70;99.90;;;;;;5073424;28;20066;-72
2022/07/03 02:55:30;;;;;;;4.40;3.03;;;16.70;99.90;;;;;;5073715;28;20048;-71
2022/07/03 02:58:08;;;;;;;5.10;3.22;;;16.70;99.90;;;;;;5075100;28;20045;-71
2022/07/03 03:00:36;;;;;;;3.55;2.88;;;16.60;99.90;;;;;;5054397;28;20395;-71
2022/07/03 03:03:03;;;;;;;4.93;3.33;;;16.60;99.90;;;;;;5074986;28;20041;-72
2022/07/03 03:05:46;;;;;;;5.72;3.08;;;16.60;99.90;;;;;;5074933;28;20033;-71
2022/07/03 03:08:15;;;;;;;6.30;4.07;;;16.50;99.90;;;;;;5074842;28;20040;-73
2022/07/03 03:10:43;;;;;;;5.13;3.63;;;16.40;99.90;;;;;;5073853;28;20516;-72
2022/07/03 03:13:11;;;;;;;5.90;3.45;;;16.50;99.90;;;;;;5056577;28;20048;-71
2022/07/03 03:15:38;;;;;;;5.00;4.07;;;16.60;99.90;;;;;;5056691;28;20044;-71
2022/07/03 03:18:11;;;;;;;6.20;3.75;;;16.40;99.90;;;;;;5073307;28;20036;-71
2022/07/03 03:20:38;;;;;;;3.80;3.50;;;16.60;99.90;;;;;;5072535;28;20089;-71
2022/07/03 03:23:34;;;;;;;5.43;3.58;;;18.20;99.90;;;;;;5073162;28;20044;-71
2022/07/03 03:26:00;;;;;;;4.00;3.42;;;16.40;99.90;;;;;;5073224;28;20036;-72
2022/07/03 03:28:26;;;;;;;4.97;3.85;;;18.10;99.90;;;;;;5074543;28;20064;-71
2022/07/03 03:30:52;;;;;;;6.55;3.95;;;16.50;99.90;;;;;;5073723;28;20417;-72
2022/07/03 03:33:19;;;;;;;4.47;3.63;;;18.30;99.90;;;;;;5072964;28;20033;-71
2022/07/03 03:35:44;;;;;;;10.55;3.63;;;16.60;99.90;;;;;;5074133;28;20170;-71
2022/07/03 03:38:11;;;;;;;4.20;3.78;;;16.90;99.90;;;;;;5073241;28;20127;-71
2022/07/03 03:40:37;;;;;;;5.68;4.25;;;17.70;99.90;;;;;;5073589;28;20234;-71
2022/07/03 03:43:03;;;;;;;4.22;3.83;;;17.20;99.90;;;;;;5072768;28;20032;-71
2022/07/03 03:45:29;;;;;;;4.13;3.55;;;16.20;99.90;;;;;;5073059;28;20036;-71
2022/07/03 03:47:55;;;;;;;4.82;3.60;;;16.50;99.90;;;;;;5072798;28;20040;-71
2022/07/03 03:50:21;;;;;;;5.28;3.65;;;18.10;99.90;;;;;;5071572;28;20049;-71
2022/07/03 03:52:48;;;;;;;6.10;4.40;;;16.70;99.90;;;;;;5072622;28;20114;-71
2022/07/03 03:55:13;;;;;;;4.85;3.85;;;16.70;99.90;;;;;;5055944;28;20040;-71
2022/07/03 03:57:39;;;;;;;6.53;3.78;;;16.40;99.90;;;;;;5072641;28;20388;-72
2022/07/03 04:00:06;;;;;;;5.07;4.07;;;18.10;99.90;;;;;;5055016;28;20477;-71
2022/07/03 04:02:32;;;;;;;5.70;4.13;;;16.60;99.90;;;;;;5054190;28;20441;-71
2022/07/03 04:04:57;;;;;;;6.13;4.20;;;17.80;99.90;;;;;;5072617;28;20078;-71
2022/07/03 04:07:23;;;;;;;7.22;4.10;;;17.70;99.90;;;;;;5073886;28;20040;-71
2022/07/03 04:09:49;;;;;;;3.80;3.33;;;18.30;99.90;;;;;;5071786;28;20040;-73
2022/07/03 04:12:15;;;;;;;4.82;3.67;;;17.50;99.90;;;;;;5072075;28;20047;-71
2022/07/03 04:14:40;;;;;;;4.97;3.10;;;16.60;99.90;;;;;;5073588;28;20037;-71
2022/07/03 04:17:06;;;;;;;4.68;3.63;;;16.80;99.90;;;;;;5073408;28;20040;-71
2022/07/03 04:19:32;;;;;;;6.00;3.30;;;16.90;99.90;;;;;;5071543;28;20041;-72
2022/07/03 04:21:58;;;;;;;5.80;3.00;;;16.90;99.90;;;;;;5073621;28;20028;-72
2022/07/03 04:24:23;;;;;;;2.90;2.58;;;16.90;99.90;;;;;;5073495;28;20036;-71
2022/07/03 04:26:49;;;;;;;3.60;2.50;;;17.40;99.90;;;;;;5071985;28;20086;-71
2022/07/03 04:29:15;;;;;;;3.83;2.60;;;18.20;99.90;;;;;;5072450;28;20071;-71
2022/07/03 04:31:41;;;;;;;2.42;2.22;;;18.90;99.90;;;;;;5073106;28;20045;-72
2022/07/03 04:34:06;;;;;;;4.38;2.45;;;18.90;99.90;;;;;;5071845;28;20422;-71
2022/07/03 04:36:32;;;;;;;6.53;2.40;;;17.30;99.90;;;;;;5071800;28;20506;-71
2022/07/03 04:38:57;;;;;;;7.32;3.00;;;17.30;99.90;;;;;;5071393;28;20117;-71
2022/07/03 04:41:23;;;;;;;2.80;2.30;;;18.00;99.90;;;;;;5072650;28;20040;-71
2022/07/03 04:43:49;;;;;;;4.78;2.70;;;18.90;99.90;;;;;;5073015;28;20516;-73
2022/07/03 04:46:14;;;;;;;6.15;3.00;;;19.00;99.90;;;;;;5072760;28;20055;-71
2022/07/03 04:48:40;;;;;;;4.80;2.58;;;17.80;99.90;;;;;;5071513;28;20044;-71
2022/07/03 04:51:05;;;;;;;6.03;2.70;;;17.60;99.90;;;;;;5072411;28;20523;-72
2022/07/03 04:53:31;;;;;;;5.70;2.38;;;17.80;99.90;;;;;;5072750;28;20044;-72
2022/07/03 04:55:57;;;;;;;6.30;2.60;;;17.90;99.90;;;;;;5072741;28;20044;-71
2022/07/03 04:58:22;;;;;;;4.18;2.85;;;17.90;99.90;;;;;;5072706;28;20379;-71
2022/07/03 05:00:48;;;;;;;6.05;2.85;;;18.00;99.90;;;;;;5052111;28;20058;-71
2022/07/03 05:03:14;;;;;;;3.55;2.42;;;17.90;99.90;;;;;;5070559;28;20490;-72
2022/07/03 05:05:40;;;;;;;2.88;2.20;;;18.00;99.90;;;;;;5071242;28;20043;-72
2022/07/03 05:08:05;;;;;;;8.95;3.20;;;17.90;99.90;;;;;;5071426;28;20494;-71
2022/07/03 05:10:31;;;;;;;3.70;2.60;;;17.80;99.90;;;;;;5070461;28;20506;-71
2022/07/03 05:12:57;;;;;;;4.70;2.90;;;17.80;99.90;;;;;;5072312;28;20045;-71
2022/07/03 05:15:23;;;;;;;6.28;2.55;;;19.20;99.90;;;;;;5071011;28;20044;-72
2022/07/03 05:17:49;;;;;;;5.50;3.17;;;19.00;99.90;;;;;;5054650;28;20037;-72
2022/07/03 05:20:24;;;;;;;6.15;2.90;;;18.20;99.90;;;;;;5070206;28;20044;-69
2022/07/03 05:22:51;;;;;;;5.50;2.60;;;18.20;99.90;;;;;;5071199;28;20455;-71
2022/07/03 05:25:16;;;;;;;3.95;3.25;;;19.20;99.90;;;;;;5070919;28;20048;-72
2022/07/03 05:27:42;;;;;;;4.05;2.97;;;18.10;99.90;;;;;;5070845;28;20036;-72
2022/07/03 05:30:08;;;;;;;7.40;3.70;;;19.30;99.90;;;;;;5069964;28;20036;-71
2022/07/03 05:32:33;;;;;;;5.47;3.28;;;18.00;99.90;;;;;;5070789;28;20071;-72
2022/07/03 05:34:59;;;;;;;5.43;3.40;;;19.40;99.90;;;;;;5071776;28;20043;-71
2022/07/03 05:37:25;;;;;;;7.60;3.45;;;18.00;99.90;;;;;;5070564;28;20082;-71
2022/07/03 05:39:50;;;;;;;4.28;2.95;;;18.50;99.90;;;;;;5071038;28;20360;-71
2022/07/03 05:42:16;;;;;;;4.55;3.20;;;18.00;99.90;;;;;;5070828;28;20098;-71
2022/07/03 05:44:41;;;;;;;5.50;3.20;;;18.00;99.90;;;;;;5072100;28;20526;-71
2022/07/03 05:47:07;;;;;;;7.50;3.42;;;17.90;99.90;;;;;;5071768;28;20040;-71
2022/07/03 05:49:32;;;;;;;6.18;3.22;;;18.00;99.90;;;;;;5069775;28;20161;-71
2022/07/03 05:51:58;;;;;;;5.70;3.35;;;18.60;99.90;;;;;;5053995;28;20044;-71
2022/07/03 05:54:24;;;;;;;5.18;3.53;;;17.90;99.90;;;;;;5054049;28;20040;-71
2022/07/03 05:56:49;;;;;;;6.82;4.53;;;18.40;99.90;;;;;;5053813;28;20040;-71
2022/07/03 05:59:15;;;;;;;5.60;3.47;;;18.20;99.90;;;;;;5069608;28;20059;-71
2022/07/03 06:01:40;;;;;;;4.88;3.35;;;19.90;99.90;;;;;;5068604;28;20387;-71
2022/07/03 06:04:06;;;;;;;4.40;3.10;;;20.40;99.90;;;;;;5071781;28;20033;-71
2022/07/03 06:06:31;;;;;;;4.65;3.22;;;20.40;99.90;;;;;;5070275;28;20072;-71
2022/07/03 06:08:57;;;;;;;4.05;2.65;;;20.00;99.90;;;;;;5069877;28;20040;-71
2022/07/03 06:11:22;;;;;;;3.55;2.97;;;18.90;99.90;;;;;;5070219;28;20040;-71
2022/07/03 06:13:48;;;;;;;3.15;2.67;;;18.60;99.90;;;;;;5079353;22;20557;-69
2022/07/03 06:16:14;;;;;;;8.07;2.30;;;18.90;99.90;;;;;;5054025;28;20048;-71
2022/07/03 06:18:39;;;;;;;4.97;2.40;;;18.70;99.90;;;;;;5054061;28;20082;-70
2022/07/03 06:21:05;;;;;;;4.75;2.63;;;18.70;99.90;;;;;;5054721;28;20510;-70
2022/07/03 06:23:30;;;;;;;5.32;2.53;;;18.80;99.90;;;;;;5055429;28;20040;-70
2022/07/03 06:25:56;;;;;;;3.00;2.20;;;19.10;99.90;;;;;;5055390;28;20440;-70
2022/07/03 06:28:21;;;;;;;4.40;2.58;;;20.00;99.90;;;;;;5054153;28;20110;-70
2022/07/03 06:30:47;;;;;;;4.30;2.30;;;20.10;99.90;;;;;;5053287;28;20494;-70
2022/07/03 06:33:12;;;;;;;4.60;2.45;;;20.10;99.90;;;;;;5053832;28;20129;-71
2022/07/03 06:35:38;;;;;;;4.60;2.08;;;19.40;99.90;;;;;;5053872;28;20086;-70
2022/07/03 06:38:04;;;;;;;4.45;2.08;;;19.40;99.90;;;;;;5055194;28;20091;-70
2022/07/03 06:40:30;;;;;;;4.28;1.88;;;19.60;99.90;;;;;;5052834;28;20037;-70
2022/07/03 06:42:56;;;;;;;3.63;1.95;;;20.50;99.90;;;;;;5053910;28;20102;-70
2022/07/03 06:45:21;;;;;;;4.13;2.08;;;19.80;99.90;;;;;;5053378;28;20041;-70
2022/07/03 06:47:47;;;;;;;5.57;2.42;;;20.40;99.90;;;;;;5055131;28;20072;-70
2022/07/03 06:50:13;;;;;;;5.75;1.65;;;19.50;99.90;;;;;;5052764;28;20522;-70
2022/07/03 06:52:38;;;;;;;3.72;1.73;;;19.60;99.90;;;;;;5053335;28;20522;-70
2022/07/03 06:55:05;;;;;;;5.32;1.73;;;19.70;99.90;;;;;;5054764;28;20076;-70
2022/07/03 06:57:31;;;;;;;3.40;1.55;;;19.50;99.90;;;;;;5053748;28;20064;-70
2022/07/03 06:59:56;;;;;;;4.82;2.03;;;21.10;99.90;;;;;;5052429;28;20045;-70
2022/07/03 07:02:22;;;;;;;2.00;1.60;;;19.80;99.90;;;;;;5052725;28;20037;-70
2022/07/03 07:04:47;;;;;;;1.95;1.65;;;19.90;99.90;;;;;;5054509;28;20069;-70
2022/07/03 07:07:13;;;;;;;3.88;1.60;;;20.40;99.90;;;;;;5054881;28;20465;-70
2022/07/03 07:09:38;;;;;;;2.65;1.50;;;20.90;99.90;;;;;;5053639;28;20080;-70
2022/07/03 07:12:05;;;;;;;3.28;1.55;;;21.00;99.90;;;;;;5053202;28;20049;-70
2022/07/03 07:14:30;;;;;;;4.53;1.90;;;19.60;99.90;;;;;;5054309;28;20045;-70
2022/07/03 07:16:56;;;;;;;2.75;1.48;;;19.90;99.90;;;;;;5053018;28;20406;-70
2022/07/03 07:19:22;;;;;;;3.83;1.75;;;20.10;99.90;;;;;;5052444;28;20047;-70
2022/07/03 07:21:47;;;;;;;3.03;1.50;;;19.90;99.90;;;;;;5053266;28;20043;-70
2022/07/03 07:24:13;;;;;;;3.38;1.55;;;20.40;99.90;;;;;;5053101;28;20128;-70
2022/07/03 07:26:39;;;;;;;2.75;1.48;;;20.10;99.90;;;;;;5053374;28;20037;-70
2022/07/03 07:29:04;;;;;;;3.70;1.55;;;21.10;99.90;;;;;;5052163;28;20037;-70
2022/07/03 07:31:30;;;;;;;3.15;1.33;;;20.50;99.90;;;;;;5052404;28;20068;-70
2022/07/03 07:33:55;;;;;;;2.63;1.35;;;21.50;99.90;;;;;;5052919;28;20037;-70
2022/07/03 07:36:21;;;;;;;6.35;2.10;;;20.70;99.90;;;;;;5054168;28;20080;-70
2022/07/03 07:38:46;;;;;;;3.13;1.52;;;20.90;99.90;;;;;;5036221;28;20036;-70
2022/07/03 07:41:12;;;;;;;1.88;1.10;;;21.80;99.90;;;;;;5051994;28;20496;-69
2022/07/03 07:43:38;;;;;;;3.20;1.55;;;21.00;99.90;;;;;;5052447;28;20084;-69
2022/07/03 07:46:03;;;;;;;4.00;1.25;;;21.40;99.90;;;;;;5053728;28;20033;-70
2022/07/03 07:48:29;;;;;;;3.30;1.10;;;21.80;99.90;;;;;;5035784;28;20037;-70
2022/07/03 07:50:55;;;;;;;4.65;1.30;;;21.10;99.90;;;;;;5051353;28;20048;-71
2022/07/03 07:53:21;;;;;;;5.20;1.92;;;22.10;99.90;;;;;;5052340;28;20419;-71
2022/07/03 07:55:46;;;;;;;2.33;0.90;;;21.40;99.90;;;;;;5035767;28;20052;-70
2022/07/03 07:58:12;;;;;;;3.72;1.00;;;21.30;99.90;;;;;;5053536;28;20041;-70
2022/07/03 08:05:35;;;;;;;4.35;0.80;;;21.50;99.90;;;;;;5033716;28;20049;-69
2022/07/03 08:06:09;;;;;;;3.38;0.75;;;21.50;99.90;;;;;;5053356;28;20185;-70
2022/07/03 08:08:34;;;;;;;2.83;1.13;;;21.50;99.90;;;;;;5053333;28;20068;-70
2022/07/03 08:11:00;;;;;;;2.85;1.23;;;23.10;99.90;;;;;;5051263;28;20526;-71
2022/07/03 08:13:26;;;;;;;2.95;0.95;;;21.60;99.90;;;;;;5051800;28;20443;-70
2022/07/03 08:15:52;;;;;;;3.40;1.42;;;21.60;99.90;;;;;;5053237;28;20095;-70
2022/07/03 08:18:18;;;;;;;3.00;1.08;;;21.90;99.90;;;;;;5052085;28;20133;-70
2022/07/03 08:20:43;;;;;;;2.80;0.95;;;21.90;99.90;;;;;;5051112;28;20041;-69
2022/07/03 08:23:09;;;;;;;1.77;0.75;;;22.50;99.90;;;;;;5053005;28;20479;-69
2022/07/03 08:25:35;;;;;;;3.78;0.95;;;23.00;99.90;;;;;;5035180;28;20077;-69
2022/07/03 08:28:00;;;;;;;4.15;1.10;;;22.30;99.90;;;;;;5053153;28;20044;-69
2022/07/03 08:30:26;;;;;;;3.22;1.17;;;22.30;99.90;;;;;;5050916;28;20037;-69
2022/07/03 08:32:55;;;;;;;4.68;1.00;;;22.70;99.90;;;;;;5052919;28;20474;-69
2022/07/03 08:35:20;;;;;;;2.58;0.77;;;22.20;99.90;;;;;;5052713;28;20047;-69
2022/07/03 08:37:47;;;;;;;2.58;0.80;;;22.10;99.90;;;;;;5052668;28;20037;-69
2022/07/03 08:40:15;;;;;;;2.15;0.93;;;22.10;99.90;;;;;;5052201;28;20103;-69
2022/07/03 08:42:46;;;;;;;2.33;0.70;;;23.50;99.90;;;;;;5035257;28;20398;-69
2022/07/03 08:45:15;;;;;;;2.22;0.88;;;22.50;99.90;;;;;;5052927;28;20049;-69
2022/07/03 08:47:42;;;;;;;1.20;0.57;;;22.40;99.90;;;;;;5051504;28;20438;-69
2022/07/03 08:50:09;;;;;;;6.75;1.33;;;22.70;99.90;;;;;;5050932;28;20036;-69
2022/07/03 08:52:35;;;;;;;2.17;0.90;;;22.50;99.90;;;;;;5051336;28;20080;-71
2022/07/03 08:55:03;;;;;;;4.63;0.80;;;22.30;99.90;;;;;;5052965;28;20462;-69
2022/07/03 08:57:32;;;;;;;3.45;0.50;;;22.30;99.90;;;;;;5034689;28;20053;-69
2022/07/03 09:00:00;;;;;;;2.80;0.77;;;22.40;99.90;;;;;;5050541;28;20048;-70
2022/07/03 09:02:27;;;;;;;2.35;0.70;;;22.50;99.90;;;;;;5050071;28;20037;-69
2022/07/03 09:04:52;;;;;;;3.88;0.95;;;22.80;99.90;;;;;;5051012;28;20555;-69
2022/07/03 09:07:19;;;;;;;2.85;0.88;;;22.40;99.90;;;;;;5034544;28;20123;-69
2022/07/03 09:09:45;;;;;;;3.47;0.93;;;24.10;99.90;;;;;;5050302;28;20126;-69
2022/07/03 09:12:12;;;;;;;2.78;0.90;;;24.00;99.90;;;;;;5050785;28;20041;-69
2022/07/03 09:14:38;;;;;;;0.90;0.60;;;22.70;99.90;;;;;;5050867;28;20040;-70
2022/07/03 09:17:07;;;;;;;2.92;0.60;;;22.60;99.90;;;;;;5052099;28;20414;-69
2022/07/03 09:20:00;;;;;;;2.10;0.80;;;22.80;99.90;;;;;;5049890;28;20506;-69
2022/07/03 09:22:31;;;;;;;3.08;0.65;;;22.40;99.20;;;;;;5048922;28;20071;-70
2022/07/03 09:25:11;;;;;;;2.88;0.95;;;21.80;99.30;;;;;;5050719;28;20494;-69
2022/07/03 09:27:38;;;;;;;5.07;0.93;;;22.30;99.90;;;;;;5051694;28;20546;-69
2022/07/03 09:30:06;;;;;;;4.35;1.05;;;22.00;99.90;;;;;;5050121;28;20040;-69
2022/07/03 09:32:36;;;;;;;3.40;1.05;;;21.80;99.90;;;;;;5051918;28;20040;-69
2022/07/03 09:35:19;;;;;;;2.25;0.90;;;21.70;99.90;;;;;;5050463;28;20131;-69
2022/07/03 09:37:54;;;;;;;1.67;0.70;;;22.20;99.90;;;;;;5050689;28;20217;-69
2022/07/03 09:40:20;;;;;;;4.50;0.90;;;22.40;99.90;;;;;;5050872;28;20491;-69
2022/07/03 09:43:05;;;;;;;4.07;0.95;;;23.10;99.90;;;;;;5050240;28;20090;-69
2022/07/03 09:46:00;;;;;;;3.45;0.93;;;22.90;98.80;;;;;;5051561;28;20396;-69
2022/07/03 09:48:33;;;;;;;4.45;1.00;;;23.10;99.40;;;;;;5050001;28;20442;-69
2022/07/03 09:51:13;;;;;;;3.88;1.52;;;22.90;99.40;;;;;;5050854;28;20513;-69
2022/07/03 09:54:02;;;;;;;5.72;1.42;;;23.40;99.90;;;;;;5050401;28;20076;-70
2022/07/03 09:56:35;;;;;;;4.05;1.10;;;22.90;99.90;;;;;;5050181;28;20063;-69
2022/07/03 09:59:08;;;;;;;2.95;1.23;;;23.10;99.90;;;;;;5049512;28;20503;-69
2022/07/03 10:01:41;;;;;;;1.98;1.35;;;23.50;99.70;;;;;;5050472;28;20048;-69
2022/07/03 10:04:18;;;;;;;6.68;1.63;;;23.40;99.90;;;;;;5051296;28;20515;-69
2022/07/03 10:06:56;;;;;;;2.03;0.82;;;23.30;99.90;;;;;;5051288;28;20040;-70
2022/07/03 10:09:29;;;;;;;8.15;1.38;;;23.10;99.50;;;;;;5049294;28;20175;-69
2022/07/03 10:11:56;;;;;;;4.65;1.30;;;22.60;99.80;;;;;;5051253;28;20036;-69
2022/07/03 10:14:28;;;;;;;3.47;1.40;;;22.50;99.90;;;;;;5050011;28;20052;-69
2022/07/03 10:16:55;;;;;;;5.40;1.80;;;22.90;99.90;;;;;;5050132;28;20112;-68
2022/07/03 10:19:37;;;;;;;4.75;1.38;;;23.10;99.90;;;;;;5049412;28;20049;-70
2022/07/03 10:22:17;;;;;;;6.82;1.60;;;23.20;99.90;;;;;;5051548;28;20037;-69
2022/07/03 10:24:47;;;;;;;1.90;1.13;;;23.30;99.90;;;;;;5050204;28;20033;-70
2022/07/03 10:27:13;;;;;;;7.40;1.60;;;23.60;99.90;;;;;;5051131;28;20083;-69
2022/07/03 10:29:39;;;;;;;8.10;1.52;;;24.60;99.90;;;;;;5049306;28;20041;-69
2022/07/03 10:32:07;;;;;;;5.80;1.50;;;23.40;99.90;;;;;;5033162;28;20045;-69
2022/07/03 10:34:33;;;;;;;3.75;1.20;;;23.60;99.90;;;;;;5051124;28;20166;-69
2022/07/03 10:37:03;;;;;;;8.75;1.83;;;23.60;99.90;;;;;;5049817;28;20045;-69
2022/07/03 10:46:13;;;;;;;4.47;1.00;;;23.60;99.90;;;;;;5049715;28;20056;-71
2022/07/03 10:48:58;;;;;;;2.90;0.90;;;23.50;99.80;;;;;;5050951;28;20576;-71
2022/07/03 10:51:24;;;;;;;2.97;1.20;;;23.80;99.30;;;;;;5049573;28;20044;-71
2022/07/03 10:53:50;;;;;;;6.00;1.20;;;23.40;99.90;;;;;;5049658;28;20041;-69
2022/07/03 10:56:15;;;;;;;6.88;2.13;;;23.20;99.90;;;;;;5049542;28;20175;-68
2022/07/03 10:58:58;;;;;;;6.90;1.30;;;23.30;99.90;;;;;;5050717;28;20041;-69
2022/07/03 11:01:33;;;;;;;8.45;1.60;;;23.50;99.90;;;;;;5050371;28;20040;-69
2022/07/03 11:04:02;;;;;;;7.38;1.75;;;23.50;99.90;;;;;;5036671;28;20043;-68
2022/07/03 11:06:43;;;;;;;4.72;1.27;;;23.50;99.90;;;;;;5054583;28;20037;-69
2022/07/03 11:09:13;;;;;;;7.32;2.58;;;23.00;99.90;;;;;;5053927;28;20033;-68
2022/07/03 11:11:59;;;;;;;5.85;1.65;;;22.80;99.90;;;;;;5054783;28;20112;-71
2022/07/03 11:14:27;;;;;;;5.50;1.33;;;22.20;99.90;;;;;;5053160;28;20486;-71
2022/07/03 11:17:21;;;;;;;7.72;1.70;;;22.40;99.90;;;;;;5054402;28;20040;-71
2022/07/03 11:22:58;;;;;;;5.30;1.52;;;23.70;99.90;;;;;;5054386;28;20045;-69
2022/07/03 11:25:25;;;;;;;4.32;1.63;;;23.60;99.90;;;;;;5053122;28;20071;-71
2022/07/03 11:27:52;;;;;;;6.00;1.35;;;23.30;99.90;;;;;;5054565;28;20179;-69
2022/07/03 11:30:18;;;;;;;6.88;1.55;;;22.70;99.90;;;;;;5052257;28;20495;-68
2022/07/03 11:32:49;;;;;;;4.40;1.30;;;22.70;99.90;;;;;;5054352;28;20108;-69
2022/07/03 11:35:53;;;;;;;2.95;1.13;;;22.60;99.90;;;;;;5054121;28;20040;-70
2022/07/03 11:38:26;;;;;;;6.18;2.00;;;23.50;99.90;;;;;;5052664;28;20063;-69
2022/07/03 11:40:54;;;;;;;3.40;0.90;;;23.80;99.80;;;;;;5051832;28;20049;-69
2022/07/03 11:43:19;;;;;;;2.30;1.13;;;23.40;99.40;;;;;;5053908;28;20043;-70
2022/07/03 11:45:49;;;;;;;1.98;1.00;;;24.30;99.80;;;;;;5053890;28;20408;-69
2022/07/03 11:48:26;;;;;;;3.22;1.83;;;23.60;99.90;;;;;;5052373;28;20036;-69
2022/07/03 11:50:59;;;;;;;0.70;0.70;;;23.70;99.90;;;;;;5051682;28;20056;-69
2022/07/03 11:53:29;;;;;;;3.67;1.02;;;24.60;99.30;;;;;;5052714;28;20414;-69
2022/07/03 11:55:58;;;;;;;2.88;1.00;;;24.00;99.40;;;;;;5052550;28;20379;-69
2022/07/03 11:58:25;;;;;;;7.15;1.45;;;25.10;99.40;;;;;;5052373;28;20120;-69
2022/07/03 12:00:52;;;;;;;3.58;0.90;;;24.80;99.20;;;;;;5033096;28;20087;-69
2022/07/03 12:03:24;;;;;;;1.67;0.75;;;24.50;99.30;;;;;;5053602;28;20037;-69
2022/07/03 12:05:58;;;;;;;1.58;0.95;;;24.70;99.00;;;;;;5052470;28;20045;-69
2022/07/03 12:08:33;;;;;;;3.03;0.88;;;23.20;98.80;;;;;;5052044;28;20124;-69
2022/07/03 12:11:01;;;;;;;4.10;0.90;;;23.90;98.90;;;;;;5051007;28;20041;-68
2022/07/03 12:13:30;;;;;;;2.72;0.95;;;24.40;99.20;;;;;;5069001;22;20045;-73
2022/07/03 12:16:03;;;;;;;2.35;1.20;;;24.60;99.60;;;;;;5032493;28;20633;-73
2022/07/03 12:19:01;;;;;;;4.28;0.90;;;24.10;99.30;;;;;;5033715;28;20041;-73
2022/07/03 12:21:36;;;;;;;3.25;0.95;;;23.40;99.80;;;;;;5031565;28;20064;-74
2022/07/03 12:24:09;;;;;;;2.75;0.90;;;23.30;99.00;;;;;;5033521;28;20041;-73
2022/07/03 12:26:36;;;;;;;4.28;1.15;;;23.00;99.60;;;;;;5033609;28;20117;-73
2022/07/03 12:29:09;;;;;;;2.17;0.98;;;23.20;99.80;;;;;;5031510;28;20518;-73
2022/07/03 12:31:39;;;;;;;3.33;1.25;;;23.80;99.20;;;;;;5033580;28;20041;-73
2022/07/03 12:34:05;;;;;;;4.20;1.33;;;23.70;99.80;;;;;;5033315;28;20181;-70
2022/07/03 12:36:30;;;;;;;4.20;1.00;;;23.40;99.40;;;;;;5033284;28;20041;-73
2022/07/03 12:38:59;;;;;;;2.00;1.00;;;23.80;99.60;;;;;;5031614;28;20091;-72
2022/07/03 12:41:25;;;;;;;2.08;0.68;;;23.60;99.50;;;;;;5032880;28;20049;-71
2022/07/03 12:43:52;;;;;;;3.45;0.90;;;23.60;99.50;;;;;;5032927;28;20041;-73
2022/07/03 12:46:35;;;;;;;3.28;1.00;;;23.50;99.10;;;;;;5015458;28;20483;-73
2022/07/03 12:49:08;;;;;;;;;;;23.50;99.30;;;;;;5031851;28;20037;-72
2022/07/03 12:51:48;;;;;;;3.22;0.80;;;23.40;98.60;;;;;;5015136;28;19917;-70
2022/07/03 12:54:43;;;;;;;2.72;1.17;;;24.20;99.70;;;;;;5030937;28;20038;-72
2022/07/03 13:00:09;;;;;;;2.17;0.90;;;23.70;99.40;;;;;;5012195;28;20503;-70
2022/07/03 13:02:40;;;;;;;1.55;0.80;;;22.90;99.40;;;;;;5028352;28;20041;-73
2022/07/03 13:05:23;;;;;;;3.15;1.20;;;22.50;99.80;;;;;;5031756;28;20072;-73
2022/07/03 13:07:51;;;;;;;1.30;0.73;;;22.40;99.60;;;;;;5032753;28;20037;-73
2022/07/03 13:10:19;;;;;;;3.58;1.00;;;22.00;99.90;;;;;;5031895;28;20052;-73
2022/07/03 13:12:55;;;;;;;3.65;0.98;;;22.00;99.90;;;;;;5029889;28;20045;-73
2022/07/03 13:15:26;;;;;;;3.58;1.10;;;21.40;99.90;;;;;;5032416;28;20120;-73